sensor_id;sensor_type;location;lat;lon;timestamp;P1;durP1;ratioP1;P2;durP2;ratioP2
16314;SDS011;8266;52.150;4.768;2022-09-23T00:00:30;5.75;;;5.03;;
16314;SDS011;8266;52.150;4.768;2022-09-23T00:02:57;5.45;;;4.95;;
16314;SDS011;8266;52.150;4.768;2022-09-23T00:05:24;5.95;;;4.78;;
16314;SDS011;8266;52.150;4.768;2022-09-23T00:07:51;5.65;;;4.68;;
16314;SDS011;8266;52.150;4.768;2022-09-23T00:10:19;6.82;;;4.72;;
16314;SDS011;8266;52.150;4.768;2022-09-23T00:12:46;5.47;;;4.90;;
16314;SDS011;8266;52.150;4.768;2022-09-23T00:15:15;7.20;;;5.50;;
16314;SDS011;8266;52.150;4.768;2022-09-23T00:17:42;6.13;;;5.50;;
16314;SDS011;8266;52.150;4.768;2022-09-23T00:20:09;6.70;;;5.22;;
16314;SDS011;8266;52.150;4.768;2022-09-23T00:22:37;7.78;;;5.25;;
16314;SDS011;8266;52.150;4.768;2022-09-23T00:25:04;5.97;;;5.30;;
16314;SDS011;8266;52.150;4.768;2022-09-23T00:27:33;7.38;;;5.35;;
16314;SDS011;8266;52.150;4.768;2022-09-23T00:30:00;6.28;;;5.65;;
16314;SDS011;8266;52.150;4.768;2022-09-23T00:32:31;5.82;;;5.28;;
16314;SDS011;8266;52.150;4.768;2022-09-23T00:34:58;6.00;;;5.40;;
16314;SDS011;8266;52.150;4.768;2022-09-23T00:37:26;6.30;;;5.03;;
16314;SDS011;8266;52.150;4.768;2022-09-23T00:39:53;7.72;;;5.80;;
16314;SDS011;8266;52.150;4.768;2022-09-23T00:42:21;6.38;;;5.78;;
16314;SDS011;8266;52.150;4.768;2022-09-23T00:44:50;6.50;;;5.72;;
16314;SDS011;8266;52.150;4.768;2022-09-23T00:47:19;5.53;;;5.00;;
16314;SDS011;8266;52.150;4.768;2022-09-23T00:49:51;6.78;;;5.82;;
16314;SDS011;8266;52.150;4.768;2022-09-23T00:52:24;5.43;;;4.93;;
16314;SDS011;8266;52.150;4.768;2022-09-23T00:54:52;6.05;;;5.50;;
16314;SDS011;8266;52.150;4.768;2022-09-23T00:57:23;4.93;;;4.47;;
16314;SDS011;8266;52.150;4.768;2022-09-23T00:59:53;6.22;;;4.97;;
16314;SDS011;8266;52.150;4.768;2022-09-23T01:02:20;6.45;;;5.70;;
16314;SDS011;8266;52.150;4.768;2022-09-23T01:04:48;9.55;;;5.75;;
16314;SDS011;8266;52.150;4.768;2022-09-23T01:07:19;6.40;;;5.25;;
16314;SDS011;8266;52.150;4.768;2022-09-23T01:09:47;6.10;;;5.45;;
16314;SDS011;8266;52.150;4.768;2022-09-23T01:12:18;5.95;;;5.38;;
16314;SDS011;8266;52.150;4.768;2022-09-23T01:15:01;6.20;;;5.45;;
16314;SDS011;8266;52.150;4.768;2022-09-23T01:17:38;5.90;;;5.30;;
16314;SDS011;8266;52.150;4.768;2022-09-23T01:20:21;5.40;;;4.90;;
16314;SDS011;8266;52.150;4.768;2022-09-23T01:23:10;6.22;;;5.28;;
16314;SDS011;8266;52.150;4.768;2022-09-23T01:25:55;5.47;;;4.90;;
16314;SDS011;8266;52.150;4.768;2022-09-23T01:31:37;7.13;;;5.32;;
16314;SDS011;8266;52.150;4.768;2022-09-23T01:34:08;5.53;;;4.75;;
16314;SDS011;8266;52.150;4.768;2022-09-23T01:36:41;5.47;;;4.90;;
16314;SDS011;8266;52.150;4.768;2022-09-23T01:39:12;6.82;;;4.95;;
16314;SDS011;8266;52.150;4.768;2022-09-23T01:41:49;6.25;;;5.30;;
16314;SDS011;8266;52.150;4.768;2022-09-23T01:44:27;5.43;;;4.53;;
16314;SDS011;8266;52.150;4.768;2022-09-23T01:47:03;5.18;;;4.68;;
16314;SDS011;8266;52.150;4.768;2022-09-23T01:49:38;5.30;;;4.80;;
16314;SDS011;8266;52.150;4.768;2022-09-23T01:52:10;6.68;;;4.75;;
16314;SDS011;8266;52.150;4.768;2022-09-23T01:54:45;5.93;;;5.25;;
16314;SDS011;8266;52.150;4.768;2022-09-23T01:57:15;5.72;;;4.80;;
16314;SDS011;8266;52.150;4.768;2022-09-23T01:59:47;5.68;;;4.90;;
16314;SDS011;8266;52.150;4.768;2022-09-23T02:02:19;6.47;;;5.78;;
16314;SDS011;8266;52.150;4.768;2022-09-23T02:04:53;5.78;;;4.90;;
16314;SDS011;8266;52.150;4.768;2022-09-23T02:07:26;6.65;;;5.47;;
16314;SDS011;8266;52.150;4.768;2022-09-23T02:10:04;5.93;;;5.38;;
16314;SDS011;8266;52.150;4.768;2022-09-23T02:12:36;5.95;;;4.80;;
16314;SDS011;8266;52.150;4.768;2022-09-23T02:15:07;5.32;;;4.82;;
16314;SDS011;8266;52.150;4.768;2022-09-23T02:17:40;7.07;;;5.13;;
16314;SDS011;8266;52.150;4.768;2022-09-23T02:20:11;7.45;;;5.53;;
16314;SDS011;8266;52.150;4.768;2022-09-23T02:22:46;5.55;;;4.97;;
16314;SDS011;8266;52.150;4.768;2022-09-23T02:25:20;5.35;;;4.85;;
16314;SDS011;8266;52.150;4.768;2022-09-23T02:27:52;6.80;;;5.28;;
16314;SDS011;8266;52.150;4.768;2022-09-23T02:30:23;5.45;;;4.95;;
16314;SDS011;8266;52.150;4.768;2022-09-23T02:32:58;5.85;;;5.30;;
16314;SDS011;8266;52.150;4.768;2022-09-23T02:35:30;6.53;;;5.88;;
16314;SDS011;8266;52.150;4.768;2022-09-23T02:38:03;6.18;;;5.45;;
16314;SDS011;8266;52.150;4.768;2022-09-23T02:40:40;5.70;;;5.18;;
16314;SDS011;8266;52.150;4.768;2022-09-23T02:43:17;6.72;;;5.22;;
16314;SDS011;8266;52.150;4.768;2022-09-23T02:45:54;6.32;;;5.18;;
16314;SDS011;8266;52.150;4.768;2022-09-23T02:48:23;6.18;;;5.35;;
16314;SDS011;8266;52.150;4.768;2022-09-23T02:50:53;5.88;;;5.28;;
16314;SDS011;8266;52.150;4.768;2022-09-23T02:53:21;6.43;;;5.82;;
16314;SDS011;8266;52.150;4.768;2022-09-23T02:55:49;7.05;;;5.65;;
16314;SDS011;8266;52.150;4.768;2022-09-23T02:58:16;6.40;;;5.80;;
16314;SDS011;8266;52.150;4.768;2022-09-23T03:00:47;5.63;;;4.82;;
16314;SDS011;8266;52.150;4.768;2022-09-23T03:03:27;6.50;;;5.28;;
16314;SDS011;8266;52.150;4.768;2022-09-23T03:06:07;5.75;;;5.18;;
16314;SDS011;8266;52.150;4.768;2022-09-23T03:08:42;6.35;;;5.75;;
16314;SDS011;8266;52.150;4.768;2022-09-23T03:11:14;5.35;;;4.90;;
16314;SDS011;8266;52.150;4.768;2022-09-23T03:13:49;5.55;;;5.05;;
16314;SDS011;8266;52.150;4.768;2022-09-23T03:16:30;6.15;;;5.47;;
16314;SDS011;8266;52.150;4.768;2022-09-23T03:19:09;6.22;;;5.63;;
16314;SDS011;8266;52.150;4.768;2022-09-23T03:21:47;6.05;;;5.50;;
16314;SDS011;8266;52.150;4.768;2022-09-23T03:24:18;6.13;;;5.45;;
16314;SDS011;8266;52.150;4.768;2022-09-23T03:26:47;6.45;;;5.60;;
16314;SDS011;8266;52.150;4.768;2022-09-23T03:29:15;5.90;;;5.40;;
16314;SDS011;8266;52.150;4.768;2022-09-23T03:31:43;5.80;;;5.20;;
16314;SDS011;8266;52.150;4.768;2022-09-23T03:34:13;6.85;;;5.90;;
16314;SDS011;8266;52.150;4.768;2022-09-23T03:36:46;7.90;;;5.65;;
16314;SDS011;8266;52.150;4.768;2022-09-23T03:39:22;7.07;;;5.75;;
16314;SDS011;8266;52.150;4.768;2022-09-23T03:41:56;6.03;;;5.43;;
16314;SDS011;8266;52.150;4.768;2022-09-23T03:44:27;6.38;;;5.78;;
16314;SDS011;8266;52.150;4.768;2022-09-23T03:46:57;7.50;;;5.60;;
16314;SDS011;8266;52.150;4.768;2022-09-23T03:49:29;5.32;;;4.82;;
16314;SDS011;8266;52.150;4.768;2022-09-23T03:52:00;6.10;;;5.50;;
16314;SDS011;8266;52.150;4.768;2022-09-23T03:54:27;6.43;;;5.82;;
16314;SDS011;8266;52.150;4.768;2022-09-23T03:56:54;5.95;;;5.45;;
16314;SDS011;8266;52.150;4.768;2022-09-23T03:59:22;6.30;;;5.50;;
16314;SDS011;8266;52.150;4.768;2022-09-23T04:01:49;5.32;;;4.78;;
16314;SDS011;8266;52.150;4.768;2022-09-23T04:04:16;5.82;;;5.32;;
16314;SDS011;8266;52.150;4.768;2022-09-23T04:06:46;6.05;;;5.50;;
16314;SDS011;8266;52.150;4.768;2022-09-23T04:09:13;6.10;;;5.60;;
16314;SDS011;8266;52.150;4.768;2022-09-23T04:11:41;5.97;;;5.38;;
16314;SDS011;8266;52.150;4.768;2022-09-23T04:14:07;5.70;;;5.20;;
16314;SDS011;8266;52.150;4.768;2022-09-23T04:16:36;5.38;;;4.88;;
16314;SDS011;8266;52.150;4.768;2022-09-23T04:19:03;5.50;;;5.00;;
16314;SDS011;8266;52.150;4.768;2022-09-23T04:21:30;6.65;;;5.30;;
16314;SDS011;8266;52.150;4.768;2022-09-23T04:23:58;5.97;;;5.30;;
16314;SDS011;8266;52.150;4.768;2022-09-23T04:26:25;6.10;;;5.50;;
16314;SDS011;8266;52.150;4.768;2022-09-23T04:28:52;6.15;;;5.55;;
16314;SDS011;8266;52.150;4.768;2022-09-23T04:31:19;5.88;;;5.32;;
16314;SDS011;8266;52.150;4.768;2022-09-23T04:33:47;6.03;;;5.40;;
16314;SDS011;8266;52.150;4.768;2022-09-23T04:36:14;5.50;;;5.00;;
16314;SDS011;8266;52.150;4.768;2022-09-23T04:38:42;6.72;;;5.80;;
16314;SDS011;8266;52.150;4.768;2022-09-23T04:41:11;5.25;;;4.80;;
16314;SDS011;8266;52.150;4.768;2022-09-23T04:43:38;5.65;;;5.05;;
16314;SDS011;8266;52.150;4.768;2022-09-23T04:46:07;6.93;;;5.28;;
16314;SDS011;8266;52.150;4.768;2022-09-23T04:48:35;6.47;;;5.65;;
16314;SDS011;8266;52.150;4.768;2022-09-23T04:51:02;5.50;;;5.07;;
16314;SDS011;8266;52.150;4.768;2022-09-23T04:53:30;6.53;;;5.18;;
16314;SDS011;8266;52.150;4.768;2022-09-23T04:56:01;7.75;;;5.10;;
16314;SDS011;8266;52.150;4.768;2022-09-23T04:58:30;5.25;;;4.75;;
16314;SDS011;8266;52.150;4.768;2022-09-23T05:01:06;5.63;;;5.13;;
16314;SDS011;8266;52.150;4.768;2022-09-23T05:03:33;5.68;;;5.18;;
16314;SDS011;8266;52.150;4.768;2022-09-23T05:06:00;6.22;;;5.63;;
16314;SDS011;8266;52.150;4.768;2022-09-23T05:08:27;6.80;;;4.90;;
16314;SDS011;8266;52.150;4.768;2022-09-23T05:10:55;5.45;;;4.78;;
16314;SDS011;8266;52.150;4.768;2022-09-23T05:13:23;5.00;;;4.50;;
16314;SDS011;8266;52.150;4.768;2022-09-23T05:15:57;5.07;;;4.57;;
16314;SDS011;8266;52.150;4.768;2022-09-23T05:18:25;5.40;;;4.90;;
16314;SDS011;8266;52.150;4.768;2022-09-23T05:20:55;5.75;;;5.25;;
16314;SDS011;8266;52.150;4.768;2022-09-23T05:23:22;6.20;;;4.60;;
16314;SDS011;8266;52.150;4.768;2022-09-23T05:25:54;5.00;;;4.50;;
16314;SDS011;8266;52.150;4.768;2022-09-23T05:28:23;5.18;;;4.78;;
16314;SDS011;8266;52.150;4.768;2022-09-23T05:30:50;5.53;;;4.63;;
16314;SDS011;8266;52.150;4.768;2022-09-23T05:33:19;5.43;;;4.93;;
16314;SDS011;8266;52.150;4.768;2022-09-23T05:35:46;5.47;;;4.97;;
16314;SDS011;8266;52.150;4.768;2022-09-23T05:38:13;4.93;;;4.53;;
16314;SDS011;8266;52.150;4.768;2022-09-23T05:40:41;5.57;;;5.07;;
16314;SDS011;8266;52.150;4.768;2022-09-23T05:43:08;4.65;;;4.25;;
16314;SDS011;8266;52.150;4.768;2022-09-23T05:45:36;5.18;;;4.55;;
16314;SDS011;8266;52.150;4.768;2022-09-23T05:48:03;5.45;;;4.95;;
16314;SDS011;8266;52.150;4.768;2022-09-23T05:50:31;5.47;;;4.57;;
16314;SDS011;8266;52.150;4.768;2022-09-23T05:53:01;5.70;;;5.20;;
16314;SDS011;8266;52.150;4.768;2022-09-23T05:55:28;6.40;;;4.68;;
16314;SDS011;8266;52.150;4.768;2022-09-23T05:57:55;4.65;;;3.95;;
16314;SDS011;8266;52.150;4.768;2022-09-23T06:00:22;5.25;;;4.75;;
16314;SDS011;8266;52.150;4.768;2022-09-23T06:02:50;6.45;;;5.22;;
16314;SDS011;8266;52.150;4.768;2022-09-23T06:05:17;4.97;;;4.57;;
16314;SDS011;8266;52.150;4.768;2022-09-23T06:07:45;5.55;;;5.00;;
16314;SDS011;8266;52.150;4.768;2022-09-23T06:10:12;5.03;;;4.63;;
16314;SDS011;8266;52.150;4.768;2022-09-23T06:12:40;5.05;;;4.65;;
16314;SDS011;8266;52.150;4.768;2022-09-23T06:15:09;7.50;;;5.20;;
16314;SDS011;8266;52.150;4.768;2022-09-23T06:17:37;5.40;;;4.90;;
16314;SDS011;8266;52.150;4.768;2022-09-23T06:20:04;5.72;;;4.63;;
16314;SDS011;8266;52.150;4.768;2022-09-23T06:22:31;5.45;;;4.75;;
16314;SDS011;8266;52.150;4.768;2022-09-23T06:25:00;9.07;;;5.05;;
16314;SDS011;8266;52.150;4.768;2022-09-23T06:27:27;4.70;;;4.30;;
16314;SDS011;8266;52.150;4.768;2022-09-23T06:29:54;5.18;;;4.68;;
16314;SDS011;8266;52.150;4.768;2022-09-23T06:32:21;6.47;;;4.60;;
16314;SDS011;8266;52.150;4.768;2022-09-23T06:34:48;6.20;;;4.78;;
16314;SDS011;8266;52.150;4.768;2022-09-23T06:37:15;5.53;;;4.88;;
16314;SDS011;8266;52.150;4.768;2022-09-23T06:39:42;5.00;;;4.45;;
16314;SDS011;8266;52.150;4.768;2022-09-23T06:42:11;5.10;;;4.38;;
16314;SDS011;8266;52.150;4.768;2022-09-23T06:44:39;5.70;;;4.22;;
16314;SDS011;8266;52.150;4.768;2022-09-23T06:47:06;7.97;;;5.10;;
16314;SDS011;8266;52.150;4.768;2022-09-23T06:49:34;5.78;;;4.53;;
16314;SDS011;8266;52.150;4.768;2022-09-23T06:52:01;4.68;;;4.03;;
16314;SDS011;8266;52.150;4.768;2022-09-23T06:54:29;4.60;;;4.20;;
16314;SDS011;8266;52.150;4.768;2022-09-23T06:56:59;5.50;;;4.60;;
16314;SDS011;8266;52.150;4.768;2022-09-23T06:59:27;5.35;;;4.15;;
16314;SDS011;8266;52.150;4.768;2022-09-23T07:01:54;4.93;;;4.00;;
16314;SDS011;8266;52.150;4.768;2022-09-23T07:04:23;5.75;;;4.38;;
16314;SDS011;8266;52.150;4.768;2022-09-23T07:06:52;5.43;;;4.88;;
16314;SDS011;8266;52.150;4.768;2022-09-23T07:09:19;4.55;;;4.15;;
16314;SDS011;8266;52.150;4.768;2022-09-23T07:11:46;6.65;;;4.80;;
16314;SDS011;8266;52.150;4.768;2022-09-23T07:14:13;5.28;;;4.78;;
16314;SDS011;8266;52.150;4.768;2022-09-23T07:16:42;4.97;;;4.38;;
16314;SDS011;8266;52.150;4.768;2022-09-23T07:19:09;4.82;;;3.97;;
16314;SDS011;8266;52.150;4.768;2022-09-23T07:21:36;5.43;;;4.82;;
16314;SDS011;8266;52.150;4.768;2022-09-23T07:24:03;4.70;;;4.28;;
16314;SDS011;8266;52.150;4.768;2022-09-23T07:26:31;5.50;;;4.53;;
16314;SDS011;8266;52.150;4.768;2022-09-23T07:28:59;4.80;;;4.40;;
16314;SDS011;8266;52.150;4.768;2022-09-23T07:31:30;7.95;;;4.40;;
16314;SDS011;8266;52.150;4.768;2022-09-23T07:33:59;6.03;;;4.07;;
16314;SDS011;8266;52.150;4.768;2022-09-23T07:36:27;5.45;;;4.18;;
16314;SDS011;8266;52.150;4.768;2022-09-23T07:38:55;4.68;;;4.22;;
16314;SDS011;8266;52.150;4.768;2022-09-23T07:41:28;4.60;;;4.20;;
16314;SDS011;8266;52.150;4.768;2022-09-23T07:43:56;5.30;;;4.28;;
16314;SDS011;8266;52.150;4.768;2022-09-23T07:46:24;5.95;;;4.10;;
16314;SDS011;8266;52.150;4.768;2022-09-23T07:48:53;4.55;;;4.13;;
16314;SDS011;8266;52.150;4.768;2022-09-23T07:51:22;4.35;;;3.95;;
16314;SDS011;8266;52.150;4.768;2022-09-23T07:53:52;4.80;;;4.18;;
16314;SDS011;8266;52.150;4.768;2022-09-23T07:56:22;6.15;;;4.07;;
16314;SDS011;8266;52.150;4.768;2022-09-23T07:58:51;5.03;;;4.53;;
16314;SDS011;8266;52.150;4.768;2022-09-23T08:01:25;6.05;;;4.45;;
16314;SDS011;8266;52.150;4.768;2022-09-23T08:03:56;4.88;;;3.90;;
16314;SDS011;8266;52.150;4.768;2022-09-23T08:06:28;5.45;;;4.95;;
16314;SDS011;8266;52.150;4.768;2022-09-23T08:08:56;4.40;;;4.00;;
16314;SDS011;8266;52.150;4.768;2022-09-23T08:11:24;4.82;;;4.07;;
16314;SDS011;8266;52.150;4.768;2022-09-23T08:13:55;4.60;;;4.20;;
16314;SDS011;8266;52.150;4.768;2022-09-23T08:16:22;5.35;;;4.05;;
16314;SDS011;8266;52.150;4.768;2022-09-23T08:18:49;4.15;;;3.53;;
16314;SDS011;8266;52.150;4.768;2022-09-23T08:21:19;4.88;;;3.63;;
16314;SDS011;8266;52.150;4.768;2022-09-23T08:23:48;5.18;;;3.83;;
16314;SDS011;8266;52.150;4.768;2022-09-23T08:26:18;4.85;;;4.10;;
16314;SDS011;8266;52.150;4.768;2022-09-23T08:28:45;6.60;;;4.20;;
16314;SDS011;8266;52.150;4.768;2022-09-23T08:31:12;5.85;;;3.95;;
16314;SDS011;8266;52.150;4.768;2022-09-23T08:33:39;5.03;;;4.32;;
16314;SDS011;8266;52.150;4.768;2022-09-23T08:36:07;7.82;;;4.65;;
16314;SDS011;8266;52.150;4.768;2022-09-23T08:38:34;6.28;;;4.35;;
16314;SDS011;8266;52.150;4.768;2022-09-23T08:41:05;5.57;;;4.03;;
16314;SDS011;8266;52.150;4.768;2022-09-23T08:43:42;8.00;;;4.20;;
16314;SDS011;8266;52.150;4.768;2022-09-23T08:46:12;5.38;;;4.57;;
16314;SDS011;8266;52.150;4.768;2022-09-23T08:48:49;5.85;;;4.65;;
16314;SDS011;8266;52.150;4.768;2022-09-23T08:51:18;5.53;;;4.10;;
16314;SDS011;8266;52.150;4.768;2022-09-23T08:53:50;4.22;;;3.80;;
16314;SDS011;8266;52.150;4.768;2022-09-23T08:56:21;6.03;;;3.88;;
16314;SDS011;8266;52.150;4.768;2022-09-23T08:58:54;5.30;;;3.88;;
16314;SDS011;8266;52.150;4.768;2022-09-23T09:01:29;4.55;;;4.15;;
16314;SDS011;8266;52.150;4.768;2022-09-23T09:04:04;5.53;;;4.00;;
16314;SDS011;8266;52.150;4.768;2022-09-23T09:06:44;6.60;;;3.90;;
16314;SDS011;8266;52.150;4.768;2022-09-23T09:09:18;4.10;;;3.70;;
16314;SDS011;8266;52.150;4.768;2022-09-23T09:11:54;5.20;;;3.80;;
16314;SDS011;8266;52.150;4.768;2022-09-23T09:14:29;4.63;;;4.18;;
16314;SDS011;8266;52.150;4.768;2022-09-23T09:17:13;4.90;;;4.00;;
16314;SDS011;8266;52.150;4.768;2022-09-23T09:19:54;5.57;;;4.28;;
16314;SDS011;8266;52.150;4.768;2022-09-23T09:26:14;5.68;;;4.15;;
16314;SDS011;8266;52.150;4.768;2022-09-23T09:29:03;6.25;;;4.13;;
16314;SDS011;8266;52.150;4.768;2022-09-23T09:31:36;5.25;;;4.20;;
16314;SDS011;8266;52.150;4.768;2022-09-23T09:34:09;4.10;;;3.70;;
16314;SDS011;8266;52.150;4.768;2022-09-23T09:36:45;4.57;;;3.78;;
16314;SDS011;8266;52.150;4.768;2022-09-23T09:39:15;5.35;;;4.22;;
16314;SDS011;8266;52.150;4.768;2022-09-23T09:41:44;5.03;;;3.75;;
16314;SDS011;8266;52.150;4.768;2022-09-23T09:44:20;4.53;;;3.83;;
16314;SDS011;8266;52.150;4.768;2022-09-23T09:47:05;4.07;;;3.63;;
16314;SDS011;8266;52.150;4.768;2022-09-23T09:49:41;5.63;;;3.65;;
16314;SDS011;8266;52.150;4.768;2022-09-23T09:52:21;4.10;;;3.35;;
16314;SDS011;8266;52.150;4.768;2022-09-23T09:54:53;4.13;;;3.72;;
16314;SDS011;8266;52.150;4.768;2022-09-23T09:57:28;4.40;;;3.72;;
16314;SDS011;8266;52.150;4.768;2022-09-23T10:00:15;4.28;;;3.80;;
16314;SDS011;8266;52.150;4.768;2022-09-23T10:02:44;4.38;;;3.55;;
16314;SDS011;8266;52.150;4.768;2022-09-23T10:05:24;5.32;;;4.60;;
16314;SDS011;8266;52.150;4.768;2022-09-23T10:07:52;4.53;;;4.13;;
16314;SDS011;8266;52.150;4.768;2022-09-23T10:10:21;4.65;;;3.42;;
16314;SDS011;8266;52.150;4.768;2022-09-23T10:12:50;5.25;;;4.00;;
16314;SDS011;8266;52.150;4.768;2022-09-23T10:15:29;4.82;;;3.97;;
16314;SDS011;8266;52.150;4.768;2022-09-23T10:17:58;5.90;;;4.15;;
16314;SDS011;8266;52.150;4.768;2022-09-23T10:20:30;6.63;;;4.10;;
16314;SDS011;8266;52.150;4.768;2022-09-23T10:23:06;4.28;;;3.88;;
16314;SDS011;8266;52.150;4.768;2022-09-23T10:25:38;4.32;;;3.75;;
16314;SDS011;8266;52.150;4.768;2022-09-23T10:31:03;4.95;;;3.83;;
16314;SDS011;8266;52.150;4.768;2022-09-23T10:33:32;5.10;;;3.13;;
16314;SDS011;8266;52.150;4.768;2022-09-23T10:36:07;4.43;;;3.05;;
16314;SDS011;8266;52.150;4.768;2022-09-23T10:38:35;4.13;;;3.70;;
16314;SDS011;8266;52.150;4.768;2022-09-23T10:41:02;3.92;;;3.45;;
16314;SDS011;8266;52.150;4.768;2022-09-23T10:43:56;7.13;;;3.53;;
16314;SDS011;8266;52.150;4.768;2022-09-23T10:46:51;5.70;;;3.70;;
16314;SDS011;8266;52.150;4.768;2022-09-23T10:49:48;6.93;;;4.13;;
16314;SDS011;8266;52.150;4.768;2022-09-23T10:52:30;4.43;;;3.28;;
16314;SDS011;8266;52.150;4.768;2022-09-23T10:55:06;5.55;;;3.75;;
16314;SDS011;8266;52.150;4.768;2022-09-23T10:57:48;5.03;;;3.67;;
16314;SDS011;8266;52.150;4.768;2022-09-23T11:00:31;4.75;;;3.88;;
16314;SDS011;8266;52.150;4.768;2022-09-23T11:06:36;4.20;;;3.58;;
16314;SDS011;8266;52.150;4.768;2022-09-23T11:09:19;5.68;;;4.38;;
16314;SDS011;8266;52.150;4.768;2022-09-23T11:12:01;4.93;;;3.67;;
16314;SDS011;8266;52.150;4.768;2022-09-23T11:14:41;3.85;;;3.28;;
16314;SDS011;8266;52.150;4.768;2022-09-23T11:17:25;4.20;;;3.03;;
16314;SDS011;8266;52.150;4.768;2022-09-23T11:20:23;4.07;;;3.25;;
16314;SDS011;8266;52.150;4.768;2022-09-23T11:23:03;5.78;;;3.60;;
16314;SDS011;8266;52.150;4.768;2022-09-23T11:25:51;5.22;;;3.67;;
16314;SDS011;8266;52.150;4.768;2022-09-23T11:28:30;4.18;;;3.63;;
16314;SDS011;8266;52.150;4.768;2022-09-23T11:31:20;4.07;;;3.55;;
16314;SDS011;8266;52.150;4.768;2022-09-23T11:34:08;5.25;;;3.65;;
16314;SDS011;8266;52.150;4.768;2022-09-23T11:36:51;4.05;;;3.53;;
16314;SDS011;8266;52.150;4.768;2022-09-23T11:39:22;4.05;;;3.38;;
16314;SDS011;8266;52.150;4.768;2022-09-23T11:41:53;4.03;;;3.63;;
16314;SDS011;8266;52.150;4.768;2022-09-23T11:44:26;5.00;;;3.30;;
16314;SDS011;8266;52.150;4.768;2022-09-23T11:47:00;4.40;;;3.60;;
16314;SDS011;8266;52.150;4.768;2022-09-23T11:49:33;6.57;;;3.90;;
16314;SDS011;8266;52.150;4.768;2022-09-23T11:52:07;4.63;;;3.90;;
16314;SDS011;8266;52.150;4.768;2022-09-23T11:54:44;3.80;;;3.50;;
16314;SDS011;8266;52.150;4.768;2022-09-23T11:57:18;3.90;;;3.47;;
16314;SDS011;8266;52.150;4.768;2022-09-23T11:59:53;4.10;;;3.70;;
16314;SDS011;8266;52.150;4.768;2022-09-23T12:02:26;3.47;;;3.17;;
16314;SDS011;8266;52.150;4.768;2022-09-23T12:05:00;5.40;;;3.78;;
16314;SDS011;8266;52.150;4.768;2022-09-23T12:07:37;4.82;;;3.38;;
16314;SDS011;8266;52.150;4.768;2022-09-23T12:10:22;4.18;;;3.78;;
16314;SDS011;8266;52.150;4.768;2022-09-23T12:12:57;4.88;;;3.53;;
16314;SDS011;8266;52.150;4.768;2022-09-23T12:15:35;5.78;;;3.78;;
16314;SDS011;8266;52.150;4.768;2022-09-23T12:18:21;4.10;;;3.22;;
16314;SDS011;8266;52.150;4.768;2022-09-23T12:21:12;4.50;;;3.70;;
16314;SDS011;8266;52.150;4.768;2022-09-23T12:23:58;5.07;;;3.40;;
16314;SDS011;8266;52.150;4.768;2022-09-23T12:26:39;4.85;;;3.80;;
16314;SDS011;8266;52.150;4.768;2022-09-23T12:29:10;4.20;;;3.80;;
16314;SDS011;8266;52.150;4.768;2022-09-23T12:31:40;4.43;;;3.55;;
16314;SDS011;8266;52.150;4.768;2022-09-23T12:34:17;3.65;;;3.30;;
16314;SDS011;8266;52.150;4.768;2022-09-23T12:36:48;3.85;;;3.38;;
16314;SDS011;8266;52.150;4.768;2022-09-23T12:39:19;4.93;;;3.45;;
16314;SDS011;8266;52.150;4.768;2022-09-23T12:41:54;5.95;;;3.40;;
16314;SDS011;8266;52.150;4.768;2022-09-23T12:44:30;3.70;;;3.28;;
16314;SDS011;8266;52.150;4.768;2022-09-23T12:50:20;5.90;;;3.08;;
16314;SDS011;8266;52.150;4.768;2022-09-23T12:56:19;3.85;;;3.47;;
16314;SDS011;8266;52.150;4.768;2022-09-23T12:58:56;6.13;;;3.40;;
16314;SDS011;8266;52.150;4.768;2022-09-23T13:01:41;5.40;;;3.78;;
16314;SDS011;8266;52.150;4.768;2022-09-23T13:07:13;4.03;;;3.30;;
16314;SDS011;8266;52.150;4.768;2022-09-23T13:09:44;3.85;;;3.03;;
16314;SDS011;8266;52.150;4.768;2022-09-23T13:12:17;4.85;;;3.65;;
16314;SDS011;8266;52.150;4.768;2022-09-23T13:14:50;3.72;;;3.20;;
16314;SDS011;8266;52.150;4.768;2022-09-23T13:17:23;5.18;;;3.80;;
16314;SDS011;8266;52.150;4.768;2022-09-23T13:20:03;5.07;;;3.80;;
16314;SDS011;8266;52.150;4.768;2022-09-23T13:25:30;3.47;;;2.92;;
16314;SDS011;8266;52.150;4.768;2022-09-23T13:28:02;5.68;;;3.38;;
16314;SDS011;8266;52.150;4.768;2022-09-23T13:30:37;3.08;;;2.78;;
16314;SDS011;8266;52.150;4.768;2022-09-23T13:33:15;4.72;;;3.03;;
16314;SDS011;8266;52.150;4.768;2022-09-23T13:35:47;3.17;;;2.88;;
16314;SDS011;8266;52.150;4.768;2022-09-23T13:38:17;3.35;;;2.55;;
16314;SDS011;8266;52.150;4.768;2022-09-23T13:40:50;4.15;;;2.80;;
16314;SDS011;8266;52.150;4.768;2022-09-23T13:43:21;3.15;;;2.85;;
16314;SDS011;8266;52.150;4.768;2022-09-23T13:45:52;3.20;;;2.90;;
16314;SDS011;8266;52.150;4.768;2022-09-23T13:48:21;5.93;;;2.78;;
16314;SDS011;8266;52.150;4.768;2022-09-23T13:50:50;3.80;;;2.95;;
16314;SDS011;8266;52.150;4.768;2022-09-23T13:53:19;3.25;;;2.95;;
16314;SDS011;8266;52.150;4.768;2022-09-23T13:55:58;4.95;;;3.00;;
16314;SDS011;8266;52.150;4.768;2022-09-23T13:58:29;5.55;;;3.50;;
16314;SDS011;8266;52.150;4.768;2022-09-23T14:00:57;7.28;;;3.45;;
16314;SDS011;8266;52.150;4.768;2022-09-23T14:03:26;5.28;;;3.40;;
16314;SDS011;8266;52.150;4.768;2022-09-23T14:05:56;3.80;;;3.13;;
16314;SDS011;8266;52.150;4.768;2022-09-23T14:08:24;3.92;;;3.53;;
16314;SDS011;8266;52.150;4.768;2022-09-23T14:10:52;4.93;;;3.60;;
16314;SDS011;8266;52.150;4.768;2022-09-23T14:13:21;4.25;;;3.30;;
16314;SDS011;8266;52.150;4.768;2022-09-23T14:15:52;5.22;;;3.75;;
16314;SDS011;8266;52.150;4.768;2022-09-23T14:18:32;4.18;;;3.53;;
16314;SDS011;8266;52.150;4.768;2022-09-23T14:21:01;4.85;;;3.13;;
16314;SDS011;8266;52.150;4.768;2022-09-23T14:23:29;8.70;;;3.78;;
16314;SDS011;8266;52.150;4.768;2022-09-23T14:25:59;5.15;;;3.60;;
16314;SDS011;8266;52.150;4.768;2022-09-23T14:28:27;5.80;;;3.85;;
16314;SDS011;8266;52.150;4.768;2022-09-23T14:30:56;4.10;;;3.60;;
16314;SDS011;8266;52.150;4.768;2022-09-23T14:33:25;7.53;;;4.10;;
16314;SDS011;8266;52.150;4.768;2022-09-23T14:35:56;4.40;;;4.00;;
16314;SDS011;8266;52.150;4.768;2022-09-23T14:38:28;5.30;;;3.83;;
16314;SDS011;8266;52.150;4.768;2022-09-23T14:41:22;4.60;;;3.88;;
16314;SDS011;8266;52.150;4.768;2022-09-23T14:43:51;5.20;;;3.97;;
16314;SDS011;8266;52.150;4.768;2022-09-23T14:46:23;4.80;;;3.80;;
16314;SDS011;8266;52.150;4.768;2022-09-23T14:48:58;4.63;;;3.35;;
16314;SDS011;8266;52.150;4.768;2022-09-23T14:51:33;3.25;;;2.95;;
16314;SDS011;8266;52.150;4.768;2022-09-23T14:54:20;3.70;;;3.40;;
16314;SDS011;8266;52.150;4.768;2022-09-23T14:56:52;4.22;;;3.55;;
16314;SDS011;8266;52.150;4.768;2022-09-23T14:59:23;3.97;;;3.53;;
16314;SDS011;8266;52.150;4.768;2022-09-23T15:01:56;7.72;;;3.40;;
16314;SDS011;8266;52.150;4.768;2022-09-23T15:04:27;4.15;;;3.75;;
16314;SDS011;8266;52.150;4.768;2022-09-23T15:06:57;3.97;;;3.30;;
16314;SDS011;8266;52.150;4.768;2022-09-23T15:09:29;3.83;;;2.92;;
16314;SDS011;8266;52.150;4.768;2022-09-23T15:11:58;5.50;;;3.50;;
16314;SDS011;8266;52.150;4.768;2022-09-23T15:14:28;3.80;;;3.40;;
16314;SDS011;8266;52.150;4.768;2022-09-23T15:17:01;4.03;;;3.63;;
16314;SDS011;8266;52.150;4.768;2022-09-23T15:19:30;5.00;;;3.97;;
16314;SDS011;8266;52.150;4.768;2022-09-23T15:21:59;3.80;;;3.50;;
16314;SDS011;8266;52.150;4.768;2022-09-23T15:24:36;4.90;;;4.43;;
16314;SDS011;8266;52.150;4.768;2022-09-23T15:27:10;4.57;;;4.03;;
16314;SDS011;8266;52.150;4.768;2022-09-23T15:29:53;4.63;;;4.22;;
16314;SDS011;8266;52.150;4.768;2022-09-23T15:32:28;5.13;;;4.72;;
16314;SDS011;8266;52.150;4.768;2022-09-23T15:34:55;6.07;;;5.35;;
16314;SDS011;8266;52.150;4.768;2022-09-23T15:37:22;5.30;;;4.80;;
16314;SDS011;8266;52.150;4.768;2022-09-23T15:39:49;5.80;;;5.30;;
16314;SDS011;8266;52.150;4.768;2022-09-23T15:42:16;5.78;;;4.65;;
16314;SDS011;8266;52.150;4.768;2022-09-23T15:44:43;6.90;;;4.70;;
16314;SDS011;8266;52.150;4.768;2022-09-23T15:47:11;5.97;;;5.28;;
16314;SDS011;8266;52.150;4.768;2022-09-23T15:49:44;6.45;;;5.25;;
16314;SDS011;8266;52.150;4.768;2022-09-23T15:52:12;5.20;;;4.15;;
16314;SDS011;8266;52.150;4.768;2022-09-23T15:54:40;5.28;;;4.78;;